< < Back
Terminal Aerodrome Forecast


Current Version              Previous Versions:   1  2  3  4  5  6  7  8  9  

Terminal Aerodrome Forecast

931
FTUS44 KOHX 260545 AAA
TAFCSV
TAF AMD
KCSV 260545Z 2606/2706 25006KT P6SM VCSH SCT050 BKN100
      TEMPO 2608/2612 3SM -SHRA OVC050
     FM261200 22006KT P6SM SCT070=



Latest METAR

439
SAUS70 KWBC 261200 RRJ
MTRCSV
METAR KCSV 261153Z AUTO 00000KT 5SM BR BKN065 18/17 A3021 RMK AO2 SLP213
60010 70010 T01780167 10200 20172 51007


USA.gov is the U.S. government's official web portal to all federal, state and local government web resources and services.